sensor_id;sensor_type;location;lat;lon;timestamp;P1;durP1;ratioP1;P2;durP2;ratioP2
55037;SDS011;40937;53.594;10.034;2024-01-30T00:02:07;9.48;;;8.48;;
55037;SDS011;40937;53.594;10.034;2024-01-30T00:04:35;8.95;;;8.15;;
55037;SDS011;40937;53.594;10.034;2024-01-30T00:07:02;11.23;;;7.88;;
55037;SDS011;40937;53.594;10.034;2024-01-30T00:09:30;9.50;;;8.35;;
55037;SDS011;40937;53.594;10.034;2024-01-30T00:11:57;9.65;;;8.57;;
55037;SDS011;40937;53.594;10.034;2024-01-30T00:14:29;8.80;;;7.90;;
55037;SDS011;40937;53.594;10.034;2024-01-30T00:16:56;8.32;;;7.53;;
55037;SDS011;40937;53.594;10.034;2024-01-30T00:19:23;10.57;;;8.90;;
55037;SDS011;40937;53.594;10.034;2024-01-30T00:21:51;10.00;;;7.95;;
55037;SDS011;40937;53.594;10.034;2024-01-30T00:24:18;7.90;;;7.28;;
55037;SDS011;40937;53.594;10.034;2024-01-30T00:26:48;11.02;;;8.10;;
55037;SDS011;40937;53.594;10.034;2024-01-30T00:29:15;13.05;;;8.48;;
55037;SDS011;40937;53.594;10.034;2024-01-30T00:31:46;10.35;;;8.68;;
55037;SDS011;40937;53.594;10.034;2024-01-30T00:34:16;8.90;;;8.00;;
55037;SDS011;40937;53.594;10.034;2024-01-30T00:36:44;8.57;;;7.75;;
55037;SDS011;40937;53.594;10.034;2024-01-30T00:39:11;11.02;;;7.75;;
55037;SDS011;40937;53.594;10.034;2024-01-30T00:41:41;13.57;;;8.15;;
55037;SDS011;40937;53.594;10.034;2024-01-30T00:44:08;10.13;;;7.63;;
55037;SDS011;40937;53.594;10.034;2024-01-30T00:46:36;9.60;;;7.85;;
55037;SDS011;40937;53.594;10.034;2024-01-30T00:49:04;9.35;;;8.45;;
55037;SDS011;40937;53.594;10.034;2024-01-30T00:51:37;9.15;;;8.05;;
55037;SDS011;40937;53.594;10.034;2024-01-30T00:54:04;8.80;;;8.00;;
55037;SDS011;40937;53.594;10.034;2024-01-30T00:56:35;8.15;;;7.45;;
55037;SDS011;40937;53.594;10.034;2024-01-30T00:59:03;7.90;;;7.15;;
55037;SDS011;40937;53.594;10.034;2024-01-30T01:01:33;8.55;;;7.63;;
55037;SDS011;40937;53.594;10.034;2024-01-30T01:04:00;8.63;;;7.75;;
55037;SDS011;40937;53.594;10.034;2024-01-30T01:06:31;8.85;;;7.88;;
55037;SDS011;40937;53.594;10.034;2024-01-30T01:08:59;10.65;;;7.28;;
55037;SDS011;40937;53.594;10.034;2024-01-30T01:11:26;8.50;;;7.68;;
55037;SDS011;40937;53.594;10.034;2024-01-30T01:13:56;8.57;;;7.65;;
55037;SDS011;40937;53.594;10.034;2024-01-30T01:16:23;7.55;;;6.85;;
55037;SDS011;40937;53.594;10.034;2024-01-30T01:18:50;7.80;;;6.68;;
55037;SDS011;40937;53.594;10.034;2024-01-30T01:21:20;10.50;;;7.20;;
55037;SDS011;40937;53.594;10.034;2024-01-30T01:23:49;7.60;;;6.80;;
55037;SDS011;40937;53.594;10.034;2024-01-30T01:26:16;7.75;;;7.00;;
55037;SDS011;40937;53.594;10.034;2024-01-30T01:28:47;9.80;;;6.60;;
55037;SDS011;40937;53.594;10.034;2024-01-30T01:31:14;8.10;;;7.32;;
55037;SDS011;40937;53.594;10.034;2024-01-30T01:33:45;10.50;;;7.65;;
55037;SDS011;40937;53.594;10.034;2024-01-30T01:36:13;7.88;;;7.07;;
55037;SDS011;40937;53.594;10.034;2024-01-30T01:38:40;7.53;;;6.82;;
55037;SDS011;40937;53.594;10.034;2024-01-30T01:41:09;9.27;;;6.95;;
55037;SDS011;40937;53.594;10.034;2024-01-30T01:43:37;7.65;;;6.90;;
55037;SDS011;40937;53.594;10.034;2024-01-30T01:46:06;15.77;;;7.28;;
55037;SDS011;40937;53.594;10.034;2024-01-30T01:48:33;7.22;;;6.53;;
55037;SDS011;40937;53.594;10.034;2024-01-30T01:51:01;10.88;;;6.78;;
55037;SDS011;40937;53.594;10.034;2024-01-30T01:53:29;7.50;;;6.47;;
55037;SDS011;40937;53.594;10.034;2024-01-30T01:55:59;8.43;;;7.63;;
55037;SDS011;40937;53.594;10.034;2024-01-30T01:58:28;10.45;;;7.40;;
55037;SDS011;40937;53.594;10.034;2024-01-30T02:00:56;8.02;;;7.22;;
55037;SDS011;40937;53.594;10.034;2024-01-30T02:03:25;7.53;;;6.70;;
55037;SDS011;40937;53.594;10.034;2024-01-30T02:05:53;9.73;;;7.40;;
55037;SDS011;40937;53.594;10.034;2024-01-30T02:08:21;15.10;;;7.53;;
55037;SDS011;40937;53.594;10.034;2024-01-30T02:10:49;8.45;;;7.28;;
55037;SDS011;40937;53.594;10.034;2024-01-30T02:13:18;8.25;;;7.32;;
55037;SDS011;40937;53.594;10.034;2024-01-30T02:15:49;7.40;;;6.78;;
55037;SDS011;40937;53.594;10.034;2024-01-30T02:18:19;13.13;;;7.55;;
55037;SDS011;40937;53.594;10.034;2024-01-30T02:20:47;8.10;;;7.22;;
55037;SDS011;40937;53.594;10.034;2024-01-30T02:23:16;10.27;;;6.90;;
55037;SDS011;40937;53.594;10.034;2024-01-30T02:25:43;7.30;;;6.60;;
55037;SDS011;40937;53.594;10.034;2024-01-30T02:28:10;10.27;;;6.57;;
55037;SDS011;40937;53.594;10.034;2024-01-30T02:30:38;7.93;;;7.13;;
55037;SDS011;40937;53.594;10.034;2024-01-30T02:33:06;7.65;;;6.97;;
55037;SDS011;40937;53.594;10.034;2024-01-30T02:35:33;7.97;;;7.28;;
55037;SDS011;40937;53.594;10.034;2024-01-30T02:38:01;7.75;;;7.05;;
55037;SDS011;40937;53.594;10.034;2024-01-30T02:40:30;7.97;;;7.10;;
55037;SDS011;40937;53.594;10.034;2024-01-30T02:42:58;12.18;;;7.45;;
55037;SDS011;40937;53.594;10.034;2024-01-30T02:45:27;8.82;;;7.30;;
55037;SDS011;40937;53.594;10.034;2024-01-30T02:47:55;7.93;;;7.22;;
55037;SDS011;40937;53.594;10.034;2024-01-30T02:50:22;11.00;;;7.55;;
55037;SDS011;40937;53.594;10.034;2024-01-30T02:52:49;7.85;;;7.25;;
55037;SDS011;40937;53.594;10.034;2024-01-30T02:55:16;8.55;;;7.65;;
55037;SDS011;40937;53.594;10.034;2024-01-30T02:57:45;11.80;;;7.25;;
55037;SDS011;40937;53.594;10.034;2024-01-30T03:00:15;8.55;;;7.70;;
55037;SDS011;40937;53.594;10.034;2024-01-30T03:02:43;9.32;;;7.22;;
55037;SDS011;40937;53.594;10.034;2024-01-30T03:05:10;7.05;;;6.55;;
55037;SDS011;40937;53.594;10.034;2024-01-30T03:07:37;8.15;;;7.35;;
55037;SDS011;40937;53.594;10.034;2024-01-30T03:10:05;7.43;;;6.72;;
55037;SDS011;40937;53.594;10.034;2024-01-30T03:12:37;7.68;;;6.90;;
55037;SDS011;40937;53.594;10.034;2024-01-30T03:15:06;10.45;;;7.53;;
55037;SDS011;40937;53.594;10.034;2024-01-30T03:17:35;8.68;;;7.68;;
55037;SDS011;40937;53.594;10.034;2024-01-30T03:20:03;8.07;;;7.07;;
55037;SDS011;40937;53.594;10.034;2024-01-30T03:22:32;8.20;;;7.38;;
55037;SDS011;40937;53.594;10.034;2024-01-30T03:24:59;9.40;;;7.80;;
55037;SDS011;40937;53.594;10.034;2024-01-30T03:27:26;10.38;;;8.27;;
55037;SDS011;40937;53.594;10.034;2024-01-30T03:29:54;9.13;;;7.72;;
55037;SDS011;40937;53.594;10.034;2024-01-30T03:32:26;8.48;;;7.70;;
55037;SDS011;40937;53.594;10.034;2024-01-30T03:34:57;9.23;;;8.32;;
55037;SDS011;40937;53.594;10.034;2024-01-30T03:37:25;9.07;;;7.82;;
55037;SDS011;40937;53.594;10.034;2024-01-30T03:39:52;10.10;;;7.45;;
55037;SDS011;40937;53.594;10.034;2024-01-30T03:42:19;8.75;;;7.85;;
55037;SDS011;40937;53.594;10.034;2024-01-30T03:44:48;9.07;;;7.32;;
55037;SDS011;40937;53.594;10.034;2024-01-30T03:47:17;10.38;;;7.65;;
55037;SDS011;40937;53.594;10.034;2024-01-30T03:49:46;10.35;;;8.13;;
55037;SDS011;40937;53.594;10.034;2024-01-30T03:52:13;10.63;;;8.20;;
55037;SDS011;40937;53.594;10.034;2024-01-30T03:54:41;9.85;;;8.40;;
55037;SDS011;40937;53.594;10.034;2024-01-30T03:57:08;8.55;;;7.75;;
55037;SDS011;40937;53.594;10.034;2024-01-30T03:59:35;8.18;;;7.38;;
55037;SDS011;40937;53.594;10.034;2024-01-30T04:02:02;9.60;;;7.57;;
55037;SDS011;40937;53.594;10.034;2024-01-30T04:04:30;8.65;;;7.85;;
55037;SDS011;40937;53.594;10.034;2024-01-30T04:07:04;9.90;;;7.53;;
55037;SDS011;40937;53.594;10.034;2024-01-30T04:09:38;9.55;;;7.93;;
55037;SDS011;40937;53.594;10.034;2024-01-30T04:12:06;10.10;;;7.40;;
55037;SDS011;40937;53.594;10.034;2024-01-30T04:14:33;9.13;;;7.78;;
55037;SDS011;40937;53.594;10.034;2024-01-30T04:17:01;9.35;;;8.35;;
55037;SDS011;40937;53.594;10.034;2024-01-30T04:19:28;8.63;;;7.82;;
55037;SDS011;40937;53.594;10.034;2024-01-30T04:21:56;10.48;;;8.15;;
55037;SDS011;40937;53.594;10.034;2024-01-30T04:24:25;11.07;;;8.25;;
55037;SDS011;40937;53.594;10.034;2024-01-30T04:26:52;11.80;;;8.20;;
55037;SDS011;40937;53.594;10.034;2024-01-30T04:29:20;8.73;;;7.93;;
55037;SDS011;40937;53.594;10.034;2024-01-30T04:31:48;8.90;;;8.20;;
55037;SDS011;40937;53.594;10.034;2024-01-30T04:34:15;10.95;;;7.75;;
55037;SDS011;40937;53.594;10.034;2024-01-30T04:36:43;10.35;;;9.38;;
55037;SDS011;40937;53.594;10.034;2024-01-30T04:39:11;11.68;;;9.07;;
55037;SDS011;40937;53.594;10.034;2024-01-30T04:41:40;9.50;;;8.60;;
55037;SDS011;40937;53.594;10.034;2024-01-30T04:44:08;9.77;;;8.25;;
55037;SDS011;40937;53.594;10.034;2024-01-30T04:46:35;9.75;;;8.18;;
55037;SDS011;40937;53.594;10.034;2024-01-30T04:49:02;9.15;;;8.25;;
55037;SDS011;40937;53.594;10.034;2024-01-30T04:51:31;8.88;;;7.88;;
55037;SDS011;40937;53.594;10.034;2024-01-30T04:53:58;9.68;;;8.68;;
55037;SDS011;40937;53.594;10.034;2024-01-30T04:56:26;9.93;;;8.77;;
55037;SDS011;40937;53.594;10.034;2024-01-30T04:58:55;8.88;;;8.23;;
55037;SDS011;40937;53.594;10.034;2024-01-30T05:01:28;10.23;;;9.23;;
55037;SDS011;40937;53.594;10.034;2024-01-30T05:03:55;10.25;;;9.40;;
55037;SDS011;40937;53.594;10.034;2024-01-30T05:06:26;12.48;;;9.48;;
55037;SDS011;40937;53.594;10.034;2024-01-30T05:08:53;14.38;;;9.77;;
55037;SDS011;40937;53.594;10.034;2024-01-30T05:11:21;12.23;;;8.57;;
55037;SDS011;40937;53.594;10.034;2024-01-30T05:13:51;10.60;;;9.30;;
55037;SDS011;40937;53.594;10.034;2024-01-30T05:16:19;9.80;;;8.80;;
55037;SDS011;40937;53.594;10.034;2024-01-30T05:18:47;10.93;;;8.63;;
55037;SDS011;40937;53.594;10.034;2024-01-30T05:21:14;11.73;;;8.95;;
55037;SDS011;40937;53.594;10.034;2024-01-30T05:23:42;11.13;;;9.68;;
55037;SDS011;40937;53.594;10.034;2024-01-30T05:26:09;9.70;;;8.65;;
55037;SDS011;40937;53.594;10.034;2024-01-30T05:28:36;9.98;;;9.07;;
55037;SDS011;40937;53.594;10.034;2024-01-30T05:31:04;10.80;;;9.38;;
55037;SDS011;40937;53.594;10.034;2024-01-30T05:33:33;12.10;;;10.13;;
55037;SDS011;40937;53.594;10.034;2024-01-30T05:36:00;9.90;;;9.02;;
55037;SDS011;40937;53.594;10.034;2024-01-30T05:38:28;10.88;;;9.82;;
55037;SDS011;40937;53.594;10.034;2024-01-30T05:40:55;11.30;;;8.88;;
55037;SDS011;40937;53.594;10.034;2024-01-30T05:43:24;10.63;;;9.57;;
55037;SDS011;40937;53.594;10.034;2024-01-30T05:45:59;10.13;;;9.23;;
55037;SDS011;40937;53.594;10.034;2024-01-30T05:48:31;10.00;;;9.07;;
55037;SDS011;40937;53.594;10.034;2024-01-30T05:51:01;10.40;;;9.40;;
55037;SDS011;40937;53.594;10.034;2024-01-30T05:53:29;9.98;;;8.90;;
55037;SDS011;40937;53.594;10.034;2024-01-30T05:55:57;11.20;;;9.95;;
55037;SDS011;40937;53.594;10.034;2024-01-30T05:58:26;10.88;;;9.77;;
55037;SDS011;40937;53.594;10.034;2024-01-30T06:00:53;12.65;;;10.35;;
55037;SDS011;40937;53.594;10.034;2024-01-30T06:03:23;11.35;;;9.75;;
55037;SDS011;40937;53.594;10.034;2024-01-30T06:05:53;11.13;;;10.05;;
55037;SDS011;40937;53.594;10.034;2024-01-30T06:08:23;12.47;;;10.33;;
55037;SDS011;40937;53.594;10.034;2024-01-30T06:10:54;13.00;;;10.52;;
55037;SDS011;40937;53.594;10.034;2024-01-30T06:13:21;12.57;;;9.95;;
55037;SDS011;40937;53.594;10.034;2024-01-30T06:15:49;13.95;;;10.40;;
55037;SDS011;40937;53.594;10.034;2024-01-30T06:18:16;10.52;;;9.60;;
55037;SDS011;40937;53.594;10.034;2024-01-30T06:20:43;12.02;;;9.43;;
55037;SDS011;40937;53.594;10.034;2024-01-30T06:23:12;13.05;;;10.18;;
55037;SDS011;40937;53.594;10.034;2024-01-30T06:25:40;18.42;;;10.30;;
55037;SDS011;40937;53.594;10.034;2024-01-30T06:28:07;11.80;;;9.98;;
55037;SDS011;40937;53.594;10.034;2024-01-30T06:30:35;11.95;;;10.45;;
55037;SDS011;40937;53.594;10.034;2024-01-30T06:33:02;29.55;;;22.38;;
55037;SDS011;40937;53.594;10.034;2024-01-30T06:35:29;16.15;;;13.50;;
55037;SDS011;40937;53.594;10.034;2024-01-30T06:37:57;12.40;;;11.10;;
55037;SDS011;40937;53.594;10.034;2024-01-30T06:40:25;12.77;;;10.07;;
55037;SDS011;40937;53.594;10.034;2024-01-30T06:42:53;11.65;;;10.45;;
55037;SDS011;40937;53.594;10.034;2024-01-30T06:45:20;14.77;;;9.70;;
55037;SDS011;40937;53.594;10.034;2024-01-30T06:47:47;12.15;;;10.52;;
55037;SDS011;40937;53.594;10.034;2024-01-30T06:50:14;12.70;;;10.25;;
55037;SDS011;40937;53.594;10.034;2024-01-30T06:52:42;16.00;;;10.43;;
55037;SDS011;40937;53.594;10.034;2024-01-30T06:55:09;11.45;;;10.27;;
55037;SDS011;40937;53.594;10.034;2024-01-30T06:57:38;12.45;;;11.15;;
55037;SDS011;40937;53.594;10.034;2024-01-30T07:00:08;11.93;;;10.93;;
55037;SDS011;40937;53.594;10.034;2024-01-30T07:02:36;11.40;;;9.90;;
55037;SDS011;40937;53.594;10.034;2024-01-30T07:05:05;11.77;;;10.57;;
55037;SDS011;40937;53.594;10.034;2024-01-30T07:07:33;17.20;;;10.35;;
55037;SDS011;40937;53.594;10.034;2024-01-30T07:10:00;11.43;;;10.27;;
55037;SDS011;40937;53.594;10.034;2024-01-30T07:12:27;14.55;;;10.98;;
55037;SDS011;40937;53.594;10.034;2024-01-30T07:14:56;16.58;;;11.23;;
55037;SDS011;40937;53.594;10.034;2024-01-30T07:17:28;13.48;;;11.02;;
55037;SDS011;40937;53.594;10.034;2024-01-30T07:19:55;16.88;;;11.27;;
55037;SDS011;40937;53.594;10.034;2024-01-30T07:22:22;15.02;;;10.65;;
55037;SDS011;40937;53.594;10.034;2024-01-30T07:24:50;14.27;;;10.73;;
55037;SDS011;40937;53.594;10.034;2024-01-30T07:27:18;11.88;;;10.75;;
55037;SDS011;40937;53.594;10.034;2024-01-30T07:29:47;12.05;;;10.32;;
55037;SDS011;40937;53.594;10.034;2024-01-30T07:32:16;15.77;;;11.20;;
55037;SDS011;40937;53.594;10.034;2024-01-30T07:34:44;13.65;;;11.80;;
55037;SDS011;40937;53.594;10.034;2024-01-30T07:37:11;15.65;;;11.48;;
55037;SDS011;40937;53.594;10.034;2024-01-30T07:39:41;12.73;;;11.18;;
55037;SDS011;40937;53.594;10.034;2024-01-30T07:42:08;11.95;;;10.70;;
55037;SDS011;40937;53.594;10.034;2024-01-30T07:44:36;15.45;;;12.05;;
55037;SDS011;40937;53.594;10.034;2024-01-30T07:47:04;14.02;;;11.65;;
55037;SDS011;40937;53.594;10.034;2024-01-30T07:49:34;18.98;;;11.90;;
55037;SDS011;40937;53.594;10.034;2024-01-30T07:52:04;23.05;;;11.68;;
55037;SDS011;40937;53.594;10.034;2024-01-30T07:54:32;13.55;;;11.73;;
55037;SDS011;40937;53.594;10.034;2024-01-30T07:57:00;14.68;;;11.65;;
55037;SDS011;40937;53.594;10.034;2024-01-30T07:59:27;13.20;;;11.75;;
55037;SDS011;40937;53.594;10.034;2024-01-30T08:01:54;13.48;;;11.90;;
55037;SDS011;40937;53.594;10.034;2024-01-30T08:04:22;13.20;;;11.82;;
55037;SDS011;40937;53.594;10.034;2024-01-30T08:06:50;13.77;;;12.15;;
55037;SDS011;40937;53.594;10.034;2024-01-30T08:09:17;17.77;;;12.93;;
55037;SDS011;40937;53.594;10.034;2024-01-30T08:11:45;13.55;;;12.02;;
55037;SDS011;40937;53.594;10.034;2024-01-30T08:14:12;16.80;;;11.55;;
55037;SDS011;40937;53.594;10.034;2024-01-30T08:16:40;13.32;;;11.88;;
55037;SDS011;40937;53.594;10.034;2024-01-30T08:19:07;17.20;;;12.70;;
55037;SDS011;40937;53.594;10.034;2024-01-30T08:21:34;13.57;;;12.25;;
55037;SDS011;40937;53.594;10.034;2024-01-30T08:24:04;18.83;;;12.27;;
55037;SDS011;40937;53.594;10.034;2024-01-30T08:26:35;13.35;;;11.95;;
55037;SDS011;40937;53.594;10.034;2024-01-30T08:29:02;13.27;;;11.95;;
55037;SDS011;40937;53.594;10.034;2024-01-30T08:31:30;16.00;;;12.70;;
55037;SDS011;40937;53.594;10.034;2024-01-30T08:34:00;13.75;;;12.38;;
55037;SDS011;40937;53.594;10.034;2024-01-30T08:36:28;12.45;;;11.30;;
55037;SDS011;40937;53.594;10.034;2024-01-30T08:38:55;13.40;;;11.88;;
55037;SDS011;40937;53.594;10.034;2024-01-30T08:41:24;13.82;;;12.43;;
55037;SDS011;40937;53.594;10.034;2024-01-30T08:43:51;14.32;;;12.75;;
55037;SDS011;40937;53.594;10.034;2024-01-30T08:46:19;15.10;;;12.88;;
55037;SDS011;40937;53.594;10.034;2024-01-30T08:48:46;12.93;;;11.32;;
55037;SDS011;40937;53.594;10.034;2024-01-30T08:51:14;13.73;;;12.13;;
55037;SDS011;40937;53.594;10.034;2024-01-30T08:53:44;12.80;;;11.60;;
55037;SDS011;40937;53.594;10.034;2024-01-30T08:56:11;15.32;;;12.27;;
55037;SDS011;40937;53.594;10.034;2024-01-30T08:58:40;15.95;;;12.32;;
55037;SDS011;40937;53.594;10.034;2024-01-30T09:01:08;14.52;;;13.02;;
55037;SDS011;40937;53.594;10.034;2024-01-30T09:03:35;20.98;;;13.25;;
55037;SDS011;40937;53.594;10.034;2024-01-30T09:06:07;16.55;;;12.95;;
55037;SDS011;40937;53.594;10.034;2024-01-30T09:08:35;14.70;;;13.30;;
55037;SDS011;40937;53.594;10.034;2024-01-30T09:11:07;15.18;;;12.40;;
55037;SDS011;40937;53.594;10.034;2024-01-30T09:13:35;16.20;;;12.38;;
55037;SDS011;40937;53.594;10.034;2024-01-30T09:16:05;18.92;;;12.95;;
55037;SDS011;40937;53.594;10.034;2024-01-30T09:18:33;23.48;;;14.10;;
55037;SDS011;40937;53.594;10.034;2024-01-30T09:21:00;16.75;;;12.52;;
55037;SDS011;40937;53.594;10.034;2024-01-30T09:23:27;16.35;;;12.00;;
55037;SDS011;40937;53.594;10.034;2024-01-30T09:25:55;14.75;;;13.27;;
55037;SDS011;40937;53.594;10.034;2024-01-30T09:28:22;15.30;;;13.32;;
55037;SDS011;40937;53.594;10.034;2024-01-30T09:30:54;14.48;;;13.13;;
55037;SDS011;40937;53.594;10.034;2024-01-30T09:33:23;20.58;;;13.20;;
55037;SDS011;40937;53.594;10.034;2024-01-30T09:35:50;18.55;;;13.25;;
55037;SDS011;40937;53.594;10.034;2024-01-30T09:38:20;16.45;;;13.30;;
55037;SDS011;40937;53.594;10.034;2024-01-30T09:40:49;18.15;;;13.85;;
55037;SDS011;40937;53.594;10.034;2024-01-30T09:43:24;13.73;;;12.35;;
55037;SDS011;40937;53.594;10.034;2024-01-30T09:45:53;15.65;;;12.73;;
55037;SDS011;40937;53.594;10.034;2024-01-30T09:48:23;15.48;;;13.63;;
55037;SDS011;40937;53.594;10.034;2024-01-30T09:50:52;14.88;;;13.32;;
55037;SDS011;40937;53.594;10.034;2024-01-30T09:53:23;16.48;;;13.73;;
55037;SDS011;40937;53.594;10.034;2024-01-30T09:55:54;21.70;;;13.65;;
55037;SDS011;40937;53.594;10.034;2024-01-30T09:58:25;17.58;;;14.40;;
55037;SDS011;40937;53.594;10.034;2024-01-30T10:00:52;14.75;;;12.70;;
55037;SDS011;40937;53.594;10.034;2024-01-30T10:03:19;14.30;;;12.60;;
55037;SDS011;40937;53.594;10.034;2024-01-30T10:05:52;13.77;;;12.30;;
55037;SDS011;40937;53.594;10.034;2024-01-30T10:08:19;19.52;;;13.80;;
55037;SDS011;40937;53.594;10.034;2024-01-30T10:10:46;15.45;;;13.63;;
55037;SDS011;40937;53.594;10.034;2024-01-30T10:13:14;17.88;;;13.77;;
55037;SDS011;40937;53.594;10.034;2024-01-30T10:15:41;14.70;;;13.38;;
55037;SDS011;40937;53.594;10.034;2024-01-30T10:18:11;17.67;;;12.60;;
55037;SDS011;40937;53.594;10.034;2024-01-30T10:20:38;13.57;;;12.25;;
55037;SDS011;40937;53.594;10.034;2024-01-30T10:23:07;18.95;;;13.48;;
55037;SDS011;40937;53.594;10.034;2024-01-30T10:25:38;16.10;;;14.50;;
55037;SDS011;40937;53.594;10.034;2024-01-30T10:28:05;16.23;;;13.60;;
55037;SDS011;40937;53.594;10.034;2024-01-30T10:30:33;15.13;;;13.00;;
55037;SDS011;40937;53.594;10.034;2024-01-30T10:33:00;18.08;;;14.27;;
55037;SDS011;40937;53.594;10.034;2024-01-30T10:35:27;15.07;;;12.85;;
55037;SDS011;40937;53.594;10.034;2024-01-30T10:37:55;16.52;;;12.65;;
55037;SDS011;40937;53.594;10.034;2024-01-30T10:40:30;26.67;;;14.13;;
55037;SDS011;40937;53.594;10.034;2024-01-30T10:43:01;14.30;;;12.68;;
55037;SDS011;40937;53.594;10.034;2024-01-30T10:45:29;17.70;;;12.93;;
55037;SDS011;40937;53.594;10.034;2024-01-30T10:47:57;14.63;;;13.05;;
55037;SDS011;40937;53.594;10.034;2024-01-30T10:50:27;16.17;;;13.82;;
55037;SDS011;40937;53.594;10.034;2024-01-30T10:52:56;14.40;;;12.93;;
55037;SDS011;40937;53.594;10.034;2024-01-30T10:55:25;16.80;;;13.43;;
55037;SDS011;40937;53.594;10.034;2024-01-30T10:57:59;14.02;;;12.50;;
55037;SDS011;40937;53.594;10.034;2024-01-30T11:00:29;14.80;;;13.02;;
55037;SDS011;40937;53.594;10.034;2024-01-30T11:02:59;17.65;;;13.35;;
55037;SDS011;40937;53.594;10.034;2024-01-30T11:05:27;20.05;;;13.18;;
55037;SDS011;40937;53.594;10.034;2024-01-30T11:07:55;15.57;;;12.43;;
55037;SDS011;40937;53.594;10.034;2024-01-30T11:10:25;18.08;;;13.52;;
55037;SDS011;40937;53.594;10.034;2024-01-30T11:12:57;18.92;;;13.32;;
55037;SDS011;40937;53.594;10.034;2024-01-30T11:15:25;14.88;;;12.27;;
55037;SDS011;40937;53.594;10.034;2024-01-30T11:17:52;14.00;;;12.45;;
55037;SDS011;40937;53.594;10.034;2024-01-30T11:20:25;18.35;;;13.43;;
55037;SDS011;40937;53.594;10.034;2024-01-30T11:22:55;17.17;;;13.07;;
55037;SDS011;40937;53.594;10.034;2024-01-30T11:25:25;21.83;;;12.70;;
55037;SDS011;40937;53.594;10.034;2024-01-30T11:27:53;14.50;;;12.85;;
55037;SDS011;40937;53.594;10.034;2024-01-30T11:30:23;13.95;;;12.65;;
55037;SDS011;40937;53.594;10.034;2024-01-30T11:33:00;13.05;;;11.85;;
55037;SDS011;40937;53.594;10.034;2024-01-30T11:35:30;15.40;;;12.70;;
55037;SDS011;40937;53.594;10.034;2024-01-30T11:38:02;13.63;;;12.32;;
55037;SDS011;40937;53.594;10.034;2024-01-30T11:40:33;14.00;;;12.57;;
55037;SDS011;40937;53.594;10.034;2024-01-30T11:43:02;16.83;;;12.48;;
55037;SDS011;40937;53.594;10.034;2024-01-30T11:45:34;18.55;;;13.50;;
55037;SDS011;40937;53.594;10.034;2024-01-30T11:48:03;20.77;;;12.65;;
55037;SDS011;40937;53.594;10.034;2024-01-30T11:50:31;21.75;;;13.50;;
55037;SDS011;40937;53.594;10.034;2024-01-30T11:53:00;22.00;;;13.25;;
55037;SDS011;40937;53.594;10.034;2024-01-30T11:55:28;14.68;;;12.95;;
55037;SDS011;40937;53.594;10.034;2024-01-30T11:57:56;17.55;;;12.05;;
55037;SDS011;40937;53.594;10.034;2024-01-30T12:00:27;14.98;;;11.73;;
55037;SDS011;40937;53.594;10.034;2024-01-30T12:03:00;18.57;;;13.43;;
55037;SDS011;40937;53.594;10.034;2024-01-30T12:05:28;23.77;;;13.87;;
55037;SDS011;40937;53.594;10.034;2024-01-30T12:07:56;19.15;;;12.68;;
55037;SDS011;40937;53.594;10.034;2024-01-30T12:10:26;14.40;;;12.75;;
55037;SDS011;40937;53.594;10.034;2024-01-30T12:12:55;14.00;;;12.57;;
55037;SDS011;40937;53.594;10.034;2024-01-30T12:15:23;17.58;;;12.15;;
55037;SDS011;40937;53.594;10.034;2024-01-30T12:17:52;19.45;;;13.05;;
55037;SDS011;40937;53.594;10.034;2024-01-30T12:20:35;18.95;;;14.43;;
55037;SDS011;40937;53.594;10.034;2024-01-30T12:23:02;14.30;;;13.00;;
55037;SDS011;40937;53.594;10.034;2024-01-30T12:25:30;14.07;;;12.77;;
55037;SDS011;40937;53.594;10.034;2024-01-30T12:28:00;19.02;;;12.80;;
55037;SDS011;40937;53.594;10.034;2024-01-30T12:30:28;21.13;;;13.02;;
55037;SDS011;40937;53.594;10.034;2024-01-30T12:32:59;14.93;;;12.15;;
55037;SDS011;40937;53.594;10.034;2024-01-30T12:35:30;17.35;;;11.48;;
55037;SDS011;40937;53.594;10.034;2024-01-30T12:38:01;13.45;;;12.05;;
55037;SDS011;40937;53.594;10.034;2024-01-30T12:40:34;14.57;;;12.52;;
55037;SDS011;40937;53.594;10.034;2024-01-30T12:43:02;21.63;;;13.02;;
55037;SDS011;40937;53.594;10.034;2024-01-30T12:45:30;18.23;;;13.38;;
55037;SDS011;40937;53.594;10.034;2024-01-30T12:47:57;14.02;;;12.45;;
55037;SDS011;40937;53.594;10.034;2024-01-30T12:50:25;14.70;;;12.18;;
55037;SDS011;40937;53.594;10.034;2024-01-30T12:52:55;18.77;;;11.40;;
55037;SDS011;40937;53.594;10.034;2024-01-30T12:55:25;18.20;;;11.80;;
55037;SDS011;40937;53.594;10.034;2024-01-30T12:57:54;12.55;;;11.30;;
55037;SDS011;40937;53.594;10.034;2024-01-30T13:00:24;15.50;;;11.45;;
55037;SDS011;40937;53.594;10.034;2024-01-30T13:03:00;15.23;;;10.98;;
55037;SDS011;40937;53.594;10.034;2024-01-30T13:05:31;11.82;;;10.60;;
55037;SDS011;40937;53.594;10.034;2024-01-30T13:07:59;10.88;;;9.85;;
55037;SDS011;40937;53.594;10.034;2024-01-30T13:10:28;12.45;;;11.25;;
55037;SDS011;40937;53.594;10.034;2024-01-30T13:12:56;13.05;;;10.57;;
55037;SDS011;40937;53.594;10.034;2024-01-30T13:15:24;10.88;;;9.73;;
55037;SDS011;40937;53.594;10.034;2024-01-30T13:17:52;16.35;;;11.07;;
55037;SDS011;40937;53.594;10.034;2024-01-30T13:20:20;16.52;;;10.20;;
55037;SDS011;40937;53.594;10.034;2024-01-30T13:22:48;14.70;;;11.20;;
55037;SDS011;40937;53.594;10.034;2024-01-30T13:25:16;19.35;;;10.55;;
55037;SDS011;40937;53.594;10.034;2024-01-30T13:27:47;10.88;;;9.73;;
55037;SDS011;40937;53.594;10.034;2024-01-30T13:30:18;12.70;;;10.45;;
55037;SDS011;40937;53.594;10.034;2024-01-30T13:32:47;14.82;;;10.82;;
55037;SDS011;40937;53.594;10.034;2024-01-30T13:35:22;11.70;;;9.65;;
55037;SDS011;40937;53.594;10.034;2024-01-30T13:37:50;11.85;;;9.82;;
55037;SDS011;40937;53.594;10.034;2024-01-30T13:40:18;11.10;;;10.13;;
55037;SDS011;40937;53.594;10.034;2024-01-30T13:42:50;16.20;;;11.05;;
55037;SDS011;40937;53.594;10.034;2024-01-30T13:45:18;12.73;;;9.93;;
55037;SDS011;40937;53.594;10.034;2024-01-30T13:47:45;11.18;;;10.07;;
55037;SDS011;40937;53.594;10.034;2024-01-30T13:50:16;11.65;;;10.55;;
55037;SDS011;40937;53.594;10.034;2024-01-30T13:52:46;10.52;;;9.45;;
55037;SDS011;40937;53.594;10.034;2024-01-30T13:55:13;11.40;;;10.30;;
55037;SDS011;40937;53.594;10.034;2024-01-30T13:57:41;15.68;;;10.63;;
55037;SDS011;40937;53.594;10.034;2024-01-30T14:00:13;16.70;;;11.00;;
55037;SDS011;40937;53.594;10.034;2024-01-30T14:02:42;30.25;;;10.55;;
55037;SDS011;40937;53.594;10.034;2024-01-30T14:05:15;12.80;;;10.45;;
55037;SDS011;40937;53.594;10.034;2024-01-30T14:07:48;15.52;;;11.00;;
55037;SDS011;40937;53.594;10.034;2024-01-30T14:10:22;14.02;;;10.40;;
55037;SDS011;40937;53.594;10.034;2024-01-30T14:12:50;10.57;;;9.55;;
55037;SDS011;40937;53.594;10.034;2024-01-30T14:15:21;11.07;;;9.65;;
55037;SDS011;40937;53.594;10.034;2024-01-30T14:17:49;12.95;;;10.43;;
55037;SDS011;40937;53.594;10.034;2024-01-30T14:20:17;10.43;;;9.38;;
55037;SDS011;40937;53.594;10.034;2024-01-30T14:22:45;15.10;;;9.95;;
55037;SDS011;40937;53.594;10.034;2024-01-30T14:25:14;14.00;;;9.93;;
55037;SDS011;40937;53.594;10.034;2024-01-30T14:27:42;15.43;;;10.40;;